Papalote, Texas
Current Conditions -  °F | °C
As of 12:51 AM on Saturday 25 Oct 2014 (Local Time) from KCRP Reporting Station
Clear Clear  
Wind Chill: 66°   Ceiling: Unl
Heat Index: 66°   Visibility: 10mi
Dew Point: 62°   Wind: 3mph
Humidity: 87%   Direction: 240°WSW
Pressure: 30.13"   Gusts: NA
Location:  28.0577°N, 97.5365°W
Report Text: KCRP 250551Z 24003KT 10SM CLR 19/17 A3013 RMK AO2 SLP203 T01890167 10244 20189 402890178 50004
Loading
Personal Weather Stations






























Interactive Weather Map
Tropical Storm Tracking
New forecast layout! Learn more

10-Day Weather Forecast

Advertisements
Track Severe Weather on mobile